createdAt,value
2023-09-15T00:01:57.538Z,100540.47
2023-09-15T00:04:23.948Z,100540.88
2023-09-15T00:06:50.298Z,100535.63
2023-09-15T00:09:16.792Z,100535.78
2023-09-15T00:11:44.749Z,100541.28
2023-09-15T00:14:12.369Z,100537.88
2023-09-15T00:16:39.221Z,100529.69
2023-09-15T00:19:05.945Z,100529.25
2023-09-15T00:21:32.255Z,100526.13
2023-09-15T00:23:58.563Z,100524.41
2023-09-15T00:26:24.896Z,100523.47
2023-09-15T00:28:52.474Z,100529.69
2023-09-15T00:31:18.861Z,100515.06
2023-09-15T00:33:45.333Z,100510.81
2023-09-15T00:36:11.666Z,100516.34
2023-09-15T00:38:37.948Z,100510.53
2023-09-15T00:41:04.233Z,100505.47
2023-09-15T00:43:30.624Z,100502.34
2023-09-15T00:45:58.348Z,100503.47
2023-09-15T00:48:24.960Z,100502.34
2023-09-15T00:50:51.570Z,100500.34
2023-09-15T00:53:19.607Z,100498.09
2023-09-15T00:55:46.431Z,100489.31
2023-09-15T00:58:12.932Z,100495.00
2023-09-15T01:00:40.838Z,100489.47
2023-09-15T01:03:08.809Z,100486.78
2023-09-15T01:05:35.599Z,100480.97
2023-09-15T01:08:01.952Z,100483.38
2023-09-15T01:10:28.277Z,100476.94
2023-09-15T01:12:55.776Z,100478.75
2023-09-15T01:15:25.000Z,100481.28
2023-09-15T01:17:56.037Z,100476.50
2023-09-15T01:20:34.080Z,100479.09
2023-09-15T01:23:10.418Z,100475.16
2023-09-15T01:25:56.767Z,100471.19
2023-09-15T01:28:36.151Z,100469.22
2023-09-15T01:31:03.980Z,100468.66
2023-09-15T01:33:31.259Z,100469.50
2023-09-15T01:35:57.597Z,100465.25
2023-09-15T01:38:23.889Z,100463.69
2023-09-15T01:40:50.205Z,100467.50
2023-09-15T01:43:16.606Z,100461.72
2023-09-15T01:45:43.045Z,100448.56
2023-09-15T01:48:11.420Z,100451.81
2023-09-15T01:50:38.219Z,100450.41
2023-09-15T01:53:04.570Z,100450.53
2023-09-15T01:55:31.682Z,100440.28
2023-09-15T01:57:58.116Z,100434.88
2023-09-15T02:00:24.516Z,100436.91
2023-09-15T02:02:50.982Z,100433.84
2023-09-15T02:05:22.543Z,100429.59
2023-09-15T02:07:48.853Z,100435.81
2023-09-15T02:10:15.327Z,100432.13
2023-09-15T02:12:41.620Z,100431.00
2023-09-15T02:15:08.155Z,100438.78
2023-09-15T02:17:34.545Z,100434.09
2023-09-15T02:20:00.862Z,100428.16
2023-09-15T02:22:28.540Z,100440.34
2023-09-15T02:24:54.875Z,100436.66
2023-09-15T02:27:21.330Z,100438.38
2023-09-15T02:29:47.730Z,100438.78
2023-09-15T02:32:13.999Z,100438.44
2023-09-15T02:34:40.385Z,100437.16
2023-09-15T02:37:06.780Z,100439.69
2023-09-15T02:39:34.421Z,100438.00
2023-09-15T02:42:00.710Z,100435.91
2023-09-15T02:44:27.060Z,100429.81
2023-09-15T02:46:53.372Z,100430.38
2023-09-15T02:49:19.809Z,100425.00
2023-09-15T02:51:46.197Z,100416.84
2023-09-15T02:54:12.561Z,100420.41
2023-09-15T02:56:40.183Z,100414.88
2023-09-15T02:59:06.761Z,100419.13
2023-09-15T03:01:33.268Z,100413.75
2023-09-15T03:03:59.731Z,100415.44
2023-09-15T03:06:26.059Z,100411.16
2023-09-15T03:08:52.373Z,100404.56
2023-09-15T03:11:18.720Z,100409.72
2023-09-15T03:13:46.342Z,100410.59
2023-09-15T03:16:13.526Z,100396.84
2023-09-15T03:18:40.253Z,100401.22
2023-09-15T03:21:06.680Z,100401.81
2023-09-15T03:23:33.174Z,100401.25
2023-09-15T03:25:59.979Z,100400.81
2023-09-15T03:28:26.417Z,100400.41
2023-09-15T03:30:54.241Z,100388.25
2023-09-15T03:33:20.634Z,100379.19
2023-09-15T03:35:46.996Z,100378.78
2023-09-15T03:38:13.318Z,100374.09
2023-09-15T03:40:39.653Z,100379.19
2023-09-15T03:43:06.034Z,100368.88
2023-09-15T03:45:32.449Z,100361.53
2023-09-15T03:48:00.124Z,100365.31
2023-09-15T03:50:26.584Z,100360.50
2023-09-15T03:52:52.912Z,100363.28
2023-09-15T03:55:19.540Z,100356.66
2023-09-15T03:57:45.922Z,100348.63
2023-09-15T04:00:12.572Z,100346.78
2023-09-15T04:02:39.017Z,100350.88
2023-09-15T04:05:07.793Z,100352.59
2023-09-15T04:07:34.132Z,100350.91
2023-09-15T04:10:00.655Z,100352.31
2023-09-15T04:12:27.108Z,100336.06
2023-09-15T04:14:53.437Z,100339.03
2023-09-15T04:17:19.771Z,100330.81
2023-09-15T04:19:46.122Z,100331.34
2023-09-15T04:22:13.803Z,100326.16
2023-09-15T04:24:40.175Z,100329.38
2023-09-15T04:27:06.504Z,100320.59
2023-09-15T04:29:32.888Z,100314.81
2023-09-15T04:31:59.319Z,100323.13
2023-09-15T04:34:25.829Z,100306.75
2023-09-15T04:36:52.310Z,100306.75
2023-09-15T04:39:19.998Z,100310.97
2023-09-15T04:41:46.316Z,100305.31
2023-09-15T04:44:12.624Z,100303.03
2023-09-15T04:46:39.210Z,100302.59
2023-09-15T04:49:05.651Z,100295.38
2023-09-15T04:51:31.967Z,100300.47
2023-09-15T04:53:58.279Z,100293.66
2023-09-15T04:56:25.886Z,100296.63
2023-09-15T04:58:52.171Z,100297.59
2023-09-15T05:01:18.617Z,100299.34
2023-09-15T05:03:45.015Z,100299.13
2023-09-15T05:06:11.495Z,100316.94
2023-09-15T05:08:37.903Z,100313.22
2023-09-15T05:11:04.246Z,100306.44
2023-09-15T05:13:31.942Z,100309.97
2023-09-15T05:15:58.391Z,100315.50
2023-09-15T05:18:24.757Z,100305.63
2023-09-15T05:20:51.080Z,100303.19
2023-09-15T05:23:17.417Z,100307.81
2023-09-15T05:25:43.774Z,100304.84
2023-09-15T05:28:10.112Z,100302.31
2023-09-15T05:30:37.738Z,100301.47
2023-09-15T05:33:04.320Z,100293.41
2023-09-15T05:35:30.665Z,100294.25
2023-09-15T05:37:57.055Z,100300.31
2023-09-15T05:40:23.470Z,100298.50
2023-09-15T05:42:49.858Z,100305.34
2023-09-15T05:45:16.316Z,100302.63
2023-09-15T05:47:43.919Z,100298.81
2023-09-15T05:50:10.433Z,100304.19
2023-09-15T05:52:36.772Z,100299.69
2023-09-15T05:55:03.128Z,100305.63
2023-09-15T05:57:29.528Z,100307.31
2023-09-15T05:59:55.866Z,100296.84
2023-09-15T06:02:22.186Z,100309.56
2023-09-15T06:04:49.924Z,100311.13
2023-09-15T06:07:16.429Z,100310.00
2023-09-15T06:09:42.968Z,100309.66
2023-09-15T06:12:09.457Z,100305.84
2023-09-15T06:14:35.871Z,100304.56
2023-09-15T06:17:02.237Z,100309.25
2023-09-15T06:19:28.650Z,100308.44
2023-09-15T06:21:56.353Z,100304.47
2023-09-15T06:24:22.796Z,100306.19
2023-09-15T06:26:49.104Z,100308.72
2023-09-15T06:29:17.439Z,100309.88
2023-09-15T06:31:43.889Z,100315.22
2023-09-15T06:34:10.385Z,100309.56
2023-09-15T06:36:36.834Z,100306.59
2023-09-15T06:39:04.600Z,100305.47
2023-09-15T06:41:31.134Z,100306.19
2023-09-15T06:43:57.708Z,100301.81
2023-09-15T06:46:24.608Z,100311.28
2023-09-15T06:48:50.952Z,100304.47
2023-09-15T06:51:17.277Z,100297.41
2023-09-15T06:53:43.560Z,100309.00
2023-09-15T06:56:11.233Z,100309.00
2023-09-15T06:58:37.529Z,100300.75
2023-09-15T07:01:04.212Z,100296.50
2023-09-15T07:03:30.761Z,100298.38
2023-09-15T07:05:57.124Z,100297.41
2023-09-15T07:08:23.388Z,100294.28
2023-09-15T07:10:49.716Z,100293.28
2023-09-15T07:13:17.481Z,100286.78
2023-09-15T07:15:45.147Z,100291.75
2023-09-15T07:18:11.444Z,100285.69
2023-09-15T07:20:37.804Z,100294.56
2023-09-15T07:23:04.433Z,100286.94
2023-09-15T07:25:30.866Z,100281.56
2023-09-15T07:27:57.304Z,100291.47
2023-09-15T07:30:25.288Z,100279.97
2023-09-15T07:32:51.904Z,100280.78
2023-09-15T07:35:18.550Z,100279.81
2023-09-15T07:37:45.124Z,100272.06
2023-09-15T07:40:11.953Z,100277.75
2023-09-15T07:42:38.410Z,100273.06
2023-09-15T07:45:05.162Z,100269.97
2023-09-15T07:47:33.133Z,100272.94
2023-09-15T07:49:59.482Z,100273.63
2023-09-15T07:52:25.912Z,100264.31
2023-09-15T07:54:52.365Z,100263.44
2023-09-15T07:57:18.700Z,100261.06
2023-09-15T07:59:45.061Z,100260.94
2023-09-15T08:02:11.493Z,100257.53
2023-09-15T08:04:39.360Z,100251.56
2023-09-15T08:07:05.877Z,100253.28
2023-09-15T08:09:32.208Z,100249.47
2023-09-15T08:11:58.615Z,100251.88
2023-09-15T08:14:24.966Z,100247.34
2023-09-15T08:16:51.584Z,100250.59
2023-09-15T08:19:18.171Z,100248.16
2023-09-15T08:21:45.785Z,100250.72
2023-09-15T08:24:12.200Z,100252.69
2023-09-15T08:26:44.162Z,100249.31
2023-09-15T08:29:12.284Z,100254.41
2023-09-15T08:31:38.804Z,100256.22
2023-09-15T08:34:05.296Z,100251.00
2023-09-15T08:36:31.808Z,100242.25
2023-09-15T08:38:59.458Z,100244.78
2023-09-15T08:41:30.266Z,100240.53
2023-09-15T08:43:56.994Z,100236.56
2023-09-15T08:46:23.900Z,100245.22
2023-09-15T08:48:52.239Z,100240.66
2023-09-15T08:51:19.331Z,100238.63
2023-09-15T08:53:46.722Z,100239.06
2023-09-15T08:56:14.815Z,100229.44
2023-09-15T08:58:41.939Z,100232.03
2023-09-15T09:01:09.267Z,100228.06
2023-09-15T09:03:36.645Z,100222.13
2023-09-15T09:06:03.502Z,100222.97
2023-09-15T09:08:30.709Z,100223.31
2023-09-15T09:10:57.109Z,100218.75
2023-09-15T09:13:37.619Z,100215.78
2023-09-15T09:16:14.260Z,100215.19
2023-09-15T09:18:40.808Z,100209.25
2023-09-15T09:21:07.282Z,100213.03
2023-09-15T09:23:33.637Z,100208.78
2023-09-15T09:26:00.324Z,100206.81
2023-09-15T09:28:28.302Z,100209.72
2023-09-15T09:30:55.657Z,100209.31
2023-09-15T09:33:22.122Z,100207.03
2023-09-15T09:35:48.684Z,100206.16
2023-09-15T09:38:16.046Z,100205.59
2023-09-15T09:40:42.519Z,100202.41
2023-09-15T09:43:08.858Z,100194.97
2023-09-15T09:45:36.590Z,100203.53
2023-09-15T09:48:03.341Z,100191.50
2023-09-15T09:50:29.813Z,100190.97
2023-09-15T09:52:56.333Z,100186.59
2023-09-15T09:55:24.944Z,100185.03
2023-09-15T09:57:52.083Z,100187.28
2023-09-15T10:00:18.425Z,100181.31
2023-09-15T10:02:47.215Z,100174.09
2023-09-15T10:05:13.606Z,100184.81
2023-09-15T10:07:40.187Z,100170.84
2023-09-15T10:10:07.676Z,100174.59
2023-09-15T10:12:34.188Z,100171.75
2023-09-15T10:15:00.859Z,100179.50
2023-09-15T10:17:27.761Z,100170.00
2023-09-15T10:19:56.963Z,100163.66
2023-09-15T10:22:24.016Z,100167.91
2023-09-15T10:24:55.029Z,100165.69
2023-09-15T10:27:21.390Z,100170.66
2023-09-15T10:29:48.013Z,100163.09
2023-09-15T10:32:17.282Z,100157.63
2023-09-15T10:34:44.182Z,100159.88
2023-09-15T10:37:12.095Z,100147.59
2023-09-15T10:39:39.334Z,100143.38
2023-09-15T10:42:06.175Z,100145.34
2023-09-15T10:44:32.535Z,100145.75
2023-09-15T10:46:58.883Z,100146.19
2023-09-15T10:49:25.287Z,100145.34
2023-09-15T10:51:52.849Z,100144.97
2023-09-15T10:54:20.990Z,100133.94
2023-09-15T10:56:48.064Z,100130.00
2023-09-15T10:59:14.508Z,100124.03
2023-09-15T11:01:44.053Z,100115.75
2023-09-15T11:04:11.757Z,100122.75
2023-09-15T11:06:38.341Z,100116.31
2023-09-15T11:09:04.816Z,100114.44
2023-09-15T11:11:32.532Z,100110.78
2023-09-15T11:14:00.869Z,100101.94
2023-09-15T11:16:31.162Z,100098.47
2023-09-15T11:19:01.064Z,100103.59
2023-09-15T11:21:28.570Z,100097.69
2023-09-15T11:23:55.836Z,100092.59
2023-09-15T11:26:28.417Z,100100.84
2023-09-15T11:28:56.598Z,100097.44
2023-09-15T11:31:23.217Z,100100.28
2023-09-15T11:33:49.688Z,100096.03
2023-09-15T11:36:18.367Z,100088.97
2023-09-15T11:38:45.472Z,100090.38
2023-09-15T11:41:11.832Z,100091.47
2023-09-15T11:43:39.457Z,100093.44
2023-09-15T11:46:07.677Z,100088.47
2023-09-15T11:48:34.941Z,100085.91
2023-09-15T11:51:01.717Z,100081.53
2023-09-15T11:53:30.084Z,100081.84
2023-09-15T11:55:56.422Z,100083.75
2023-09-15T11:58:22.803Z,100082.09
2023-09-15T12:00:49.278Z,100077.84
2023-09-15T12:03:17.102Z,100068.25
2023-09-15T12:05:43.513Z,100073.94
2023-09-15T12:08:11.056Z,100074.94
2023-09-15T12:10:37.489Z,100062.34
2023-09-15T12:13:04.016Z,100060.63
2023-09-15T12:15:30.630Z,100059.00
2023-09-15T12:17:57.185Z,100058.56
2023-09-15T12:20:25.208Z,100049.78
2023-09-15T12:22:51.996Z,100049.78
2023-09-15T12:25:18.389Z,100049.78
2023-09-15T12:27:44.794Z,100047.56
2023-09-15T12:30:11.868Z,100043.19
2023-09-15T12:32:38.926Z,100035.97
2023-09-15T12:35:09.456Z,100037.66
2023-09-15T12:37:40.736Z,100023.50
2023-09-15T12:40:07.510Z,100022.66
2023-09-15T12:42:33.888Z,100019.66
2023-09-15T12:45:00.268Z,100014.03
2023-09-15T12:47:26.693Z,100019.66
2023-09-15T12:49:53.051Z,100024.97
2023-09-15T12:52:19.352Z,100022.28
2023-09-15T12:54:47.691Z,100006.84
2023-09-15T12:57:14.033Z,100003.06
2023-09-15T12:59:40.460Z,100002.34
2023-09-15T13:02:06.894Z,100003.19
2023-09-15T13:04:33.735Z,100002.03
2023-09-15T13:07:00.383Z,99993.91
2023-09-15T13:09:26.993Z,99993.06
2023-09-15T13:11:54.682Z,99988.41
2023-09-15T13:14:21.002Z,99976.00
2023-09-15T13:16:47.286Z,99975.28
2023-09-15T13:19:15.053Z,99972.59
2023-09-15T13:21:43.312Z,99973.25
2023-09-15T13:24:09.739Z,99964.47
2023-09-15T13:26:36.148Z,99962.94
2023-09-15T13:29:03.760Z,99958.72
2023-09-15T13:31:30.180Z,99955.16
2023-09-15T13:33:56.717Z,99950.66
2023-09-15T13:36:23.270Z,99948.28
2023-09-15T13:38:50.125Z,99945.59
2023-09-15T13:41:16.768Z,99937.50
2023-09-15T13:43:43.073Z,99929.84
2023-09-15T13:46:10.843Z,99928.56
2023-09-15T13:48:37.304Z,99923.72
2023-09-15T13:51:03.900Z,99922.88
2023-09-15T13:53:30.524Z,99923.84
2023-09-15T13:55:56.847Z,99913.94
2023-09-15T13:58:23.152Z,99914.16
2023-09-15T14:00:57.846Z,99900.69
2023-09-15T14:03:25.717Z,99905.41
2023-09-15T14:05:52.357Z,99907.81
2023-09-15T14:08:18.913Z,99903.09
2023-09-15T14:10:45.263Z,99898.00
2023-09-15T14:13:11.601Z,99895.03
2023-09-15T14:15:37.964Z,99899.94
2023-09-15T14:18:04.737Z,99890.50
2023-09-15T14:20:32.511Z,99905.13
2023-09-15T14:22:58.922Z,99900.16
2023-09-15T14:25:25.206Z,99895.97
2023-09-15T14:27:51.534Z,99893.28
2023-09-15T14:30:18.029Z,99882.13
2023-09-15T14:32:44.363Z,99882.44
2023-09-15T14:35:10.683Z,99879.91
2023-09-15T14:37:38.354Z,99870.13
2023-09-15T14:40:05.195Z,99872.16
2023-09-15T14:42:32.180Z,99867.59
2023-09-15T14:44:58.557Z,99859.72
2023-09-15T14:47:24.904Z,99863.13
2023-09-15T14:49:51.219Z,99856.84
2023-09-15T14:52:17.904Z,99857.25
2023-09-15T14:54:45.599Z,99845.47
2023-09-15T14:57:12.097Z,99854.06
2023-09-15T14:59:38.481Z,99835.72
2023-09-15T15:02:04.818Z,99848.72
2023-09-15T15:04:31.236Z,99848.56
2023-09-15T15:06:57.568Z,99850.94
2023-09-15T15:09:23.899Z,99843.19
2023-09-15T15:11:51.637Z,99847.81
2023-09-15T15:14:18.105Z,99834.00
2023-09-15T15:16:44.489Z,99833.03
2023-09-15T15:19:10.936Z,99829.47
2023-09-15T15:21:37.270Z,99828.44
2023-09-15T15:24:03.697Z,99834.97
2023-09-15T15:26:30.125Z,99832.47
2023-09-15T15:28:57.719Z,99834.59
2023-09-15T15:31:24.141Z,99837.44
2023-09-15T15:33:50.572Z,99834.59
2023-09-15T15:36:17.135Z,99841.13
2023-09-15T15:38:43.516Z,99828.69
2023-09-15T15:41:10.724Z,99835.03
2023-09-15T15:43:37.273Z,99826.13
2023-09-15T15:46:06.207Z,99827.16
2023-09-15T15:48:34.057Z,99828.16
2023-09-15T15:51:00.680Z,99825.63
2023-09-15T15:53:26.969Z,99831.03
2023-09-15T15:55:53.305Z,99825.69
2023-09-15T15:58:19.676Z,99821.56
2023-09-15T16:00:46.313Z,99819.25
2023-09-15T16:03:14.075Z,99822.81
2023-09-15T16:05:40.813Z,99833.97
2023-09-15T16:08:07.270Z,99824.06
2023-09-15T16:10:33.869Z,99826.06
2023-09-15T16:13:00.174Z,99829.13
2023-09-15T16:15:26.637Z,99824.75
2023-09-15T16:17:53.753Z,99822.06
2023-09-15T16:20:21.363Z,99825.00
2023-09-15T16:22:47.872Z,99825.25
2023-09-15T16:25:14.486Z,99830.75
2023-09-15T16:27:41.152Z,99829.72
2023-09-15T16:30:08.101Z,99829.19
2023-09-15T16:32:34.550Z,99831.53
2023-09-15T16:35:00.868Z,99835.53
2023-09-15T16:37:28.522Z,99835.31
2023-09-15T16:39:54.847Z,99830.97
2023-09-15T16:42:21.260Z,99819.19
2023-09-15T16:44:47.586Z,99829.94
2023-09-15T16:47:15.054Z,99832.81
2023-09-15T16:49:41.372Z,99827.44
2023-09-15T16:52:07.681Z,99834.50
2023-09-15T16:54:35.483Z,99825.56
2023-09-15T16:59:27.993Z,99829.59
2023-09-15T17:01:57.644Z,99830.16
2023-09-15T17:04:24.042Z,99824.25
2023-09-15T17:06:50.379Z,99834.38
2023-09-15T17:09:16.747Z,99838.41
2023-09-15T17:11:44.504Z,99843.31
2023-09-15T17:14:10.828Z,99843.47
2023-09-15T17:16:37.159Z,99846.81
2023-09-15T17:19:03.704Z,99850.19
2023-09-15T17:21:32.054Z,99853.97
2023-09-15T17:23:58.488Z,99855.28
2023-09-15T17:26:24.830Z,99855.09
2023-09-15T17:28:52.554Z,99854.91
2023-09-15T17:31:19.058Z,99854.69
2023-09-15T17:33:45.570Z,99863.28
2023-09-15T17:36:11.929Z,99847.59
2023-09-15T17:38:40.240Z,99863.06
2023-09-15T17:41:08.114Z,99851.78
2023-09-15T17:43:34.449Z,99863.19
2023-09-15T17:46:02.283Z,99856.44
2023-09-15T17:48:28.691Z,99864.00
2023-09-15T17:50:55.084Z,99859.94
2023-09-15T17:53:21.456Z,99855.03
2023-09-15T17:55:47.743Z,99851.59
2023-09-15T17:58:14.044Z,99850.03
2023-09-15T18:00:40.401Z,99852.47
2023-09-15T18:03:08.069Z,99864.13
2023-09-15T18:05:34.582Z,99852.19
2023-09-15T18:08:00.909Z,99855.53
2023-09-15T18:10:27.363Z,99851.53
2023-09-15T18:12:53.793Z,99841.72
2023-09-15T18:15:20.278Z,99852.38
2023-09-15T18:17:46.688Z,99853.34
2023-09-15T18:20:14.415Z,99851.53
2023-09-15T18:22:40.813Z,99853.22
2023-09-15T18:25:07.287Z,99854.66
2023-09-15T18:27:34.064Z,99850.53
2023-09-15T18:30:00.426Z,99849.47
2023-09-15T18:32:26.737Z,99844.59
2023-09-15T18:34:53.097Z,99843.22
2023-09-15T18:37:20.840Z,99841.78
2023-09-15T18:39:47.263Z,99841.44
2023-09-15T18:42:13.668Z,99850.53
2023-09-15T18:44:40.205Z,99843.59
2023-09-15T18:47:07.130Z,99841.19
2023-09-15T18:49:33.525Z,99840.31
2023-09-15T18:51:59.861Z,99854.19
2023-09-15T18:54:27.639Z,99846.47
2023-09-15T18:56:53.989Z,99843.28
2023-09-15T18:59:20.341Z,99841.44
2023-09-15T19:01:46.620Z,99842.13
2023-09-15T19:04:12.994Z,99834.69
2023-09-15T19:06:39.442Z,99837.41
2023-09-15T19:09:05.944Z,99824.63
2023-09-15T19:11:33.611Z,99832.69
2023-09-15T19:13:59.962Z,99826.28
2023-09-15T19:16:26.355Z,99834.28
2023-09-15T19:18:54.845Z,99842.94
2023-09-15T19:21:22.858Z,99842.66
2023-09-15T19:23:49.440Z,99835.38
2023-09-15T19:26:15.877Z,99830.47
2023-09-15T19:28:43.439Z,99840.00
2023-09-15T19:31:09.739Z,99830.44
2023-09-15T19:33:36.175Z,99832.47
2023-09-15T19:36:02.778Z,99824.38
2023-09-15T19:38:29.138Z,99827.00
2023-09-15T19:40:55.553Z,99828.88
2023-09-15T19:43:21.932Z,99829.41
2023-09-15T19:45:49.975Z,99831.59
2023-09-15T19:48:16.356Z,99836.84
2023-09-15T19:50:42.721Z,99835.81
2023-09-15T19:53:09.215Z,99838.19
2023-09-15T19:55:35.707Z,99837.00
2023-09-15T19:58:02.536Z,99836.84
2023-09-15T20:00:28.825Z,99842.75
2023-09-15T20:02:58.584Z,99846.28
2023-09-15T20:05:24.935Z,99843.09
2023-09-15T20:07:51.549Z,99843.28
2023-09-15T20:10:17.993Z,99843.22
2023-09-15T20:12:44.483Z,99844.84
2023-09-15T20:15:10.910Z,99838.94
2023-09-15T20:17:37.771Z,99849.03
2023-09-15T20:20:05.999Z,99845.13
2023-09-15T20:22:32.313Z,99844.28
2023-09-15T20:24:58.656Z,99845.06
2023-09-15T20:27:25.028Z,99845.91
2023-09-15T20:29:51.827Z,99846.78
2023-09-15T20:32:18.221Z,99844.63
2023-09-15T20:34:44.589Z,99848.00
2023-09-15T20:37:12.270Z,99845.31
2023-09-15T20:39:38.635Z,99845.66
2023-09-15T20:42:05.151Z,99841.66
2023-09-15T20:44:31.576Z,99856.13
2023-09-15T20:46:57.880Z,99850.56
2023-09-15T20:49:24.345Z,99845.03
2023-09-15T20:51:50.672Z,99851.09
2023-09-15T20:54:18.290Z,99860.06
2023-09-15T20:56:44.618Z,99850.66
2023-09-15T20:59:11.002Z,99845.88
2023-09-15T21:01:37.578Z,99845.66
2023-09-15T21:04:04.130Z,99847.97
2023-09-15T21:06:30.560Z,99845.06
2023-09-15T21:08:57.991Z,99845.38
2023-09-15T21:11:25.671Z,99838.16
2023-09-15T21:13:51.964Z,99841.81
2023-09-15T21:16:18.479Z,99846.44
2023-09-15T21:18:45.220Z,99839.97
2023-09-15T21:21:11.586Z,99849.28
2023-09-15T21:23:37.920Z,99848.13
2023-09-15T21:26:04.259Z,99845.25
2023-09-15T21:28:31.880Z,99835.84
2023-09-15T21:30:58.369Z,99835.84
2023-09-15T21:33:24.913Z,99833.84
2023-09-15T21:35:51.270Z,99831.84
2023-09-15T21:38:17.567Z,99828.16
2023-09-15T21:40:43.888Z,99823.47
2023-09-15T21:43:10.197Z,99829.94
2023-09-15T21:45:38.014Z,99835.84
2023-09-15T21:48:05.244Z,99832.19
2023-09-15T21:50:31.646Z,99826.91
2023-09-15T21:52:57.941Z,99816.94
2023-09-15T21:55:24.253Z,99819.09
2023-09-15T21:57:50.599Z,99818.25
2023-09-15T22:00:17.071Z,99815.84
2023-09-15T22:02:44.762Z,99815.44
2023-09-15T22:05:11.590Z,99815.16
2023-09-15T22:07:37.910Z,99821.06
2023-09-15T22:10:04.383Z,99801.59
2023-09-15T22:12:30.787Z,99819.94
2023-09-15T22:14:57.089Z,99808.25
2023-09-15T22:17:23.418Z,99815.59
2023-09-15T22:19:51.118Z,99815.28
2023-09-15T22:22:17.427Z,99817.66
2023-09-15T22:24:43.757Z,99812.13
2023-09-15T22:27:10.114Z,99808.25
2023-09-15T22:29:36.421Z,99813.38
2023-09-15T22:32:02.896Z,99814.91
2023-09-15T22:34:29.227Z,99813.63
2023-09-15T22:36:57.043Z,99810.19
2023-09-15T22:39:23.442Z,99801.78
2023-09-15T22:41:49.788Z,99803.09
2023-09-15T22:44:16.135Z,99799.75
2023-09-15T22:46:42.519Z,99792.50
2023-09-15T22:49:08.924Z,99795.44
2023-09-15T22:51:35.720Z,99782.88
2023-09-15T22:54:03.421Z,99789.63
2023-09-15T22:56:29.760Z,99794.16
2023-09-15T22:58:56.043Z,99785.63
2023-09-15T23:01:22.422Z,99787.44
2023-09-15T23:03:48.918Z,99790.66
2023-09-15T23:06:15.278Z,99791.34
2023-09-15T23:08:41.697Z,99783.47
2023-09-15T23:11:09.321Z,99785.97
2023-09-15T23:13:35.670Z,99780.44
2023-09-15T23:16:02.137Z,99794.63
2023-09-15T23:18:28.526Z,99793.13
2023-09-15T23:20:54.830Z,99797.06
2023-09-15T23:23:21.276Z,99791.31
2023-09-15T23:25:47.686Z,99788.41
2023-09-15T23:28:15.351Z,99791.63
2023-09-15T23:30:41.923Z,99786.56
2023-09-15T23:33:08.428Z,99781.78
2023-09-15T23:35:34.762Z,99772.75
2023-09-15T23:38:01.044Z,99770.75
2023-09-15T23:40:27.496Z,99772.13
2023-09-15T23:42:53.811Z,99773.97
2023-09-15T23:45:21.513Z,99772.94
2023-09-15T23:47:47.890Z,99775.31
2023-09-15T23:50:14.229Z,99777.88
2023-09-15T23:52:40.556Z,99786.63
2023-09-15T23:55:07.439Z,99781.94
2023-09-15T23:57:33.893Z,99786.63
